SBOSBO LAS / KLAS
Speedbird OnlineSpeedbird Online LAS / KLAS

Harry Reid International
13:21 33.2°C

Location Las Vegas, United States
Latitude: 36.08010101
Longitude: -115.1520004
Web Airport Website | Wikipedia
Altitude 665 Meter / 2181 Feet
Distance 8,423 KM / 5,234 Miles
from London.
Time Zone UTC -7 hours (America/Los_Angeles)
Codes IATA: LAS
ICAO: KLAS
Currency £1 equals USD 1.09
Runways
RunwayLength (m)Surface
01L2740Concrete
01R2978Asphalt
08L4424Asphalt
08R3208Asphalt
19L2978Asphalt
19R2740Concrete
26L3208Asphalt
26R4424Asphalt
Radio
TypeDescriptionFrequency
APPLAS VEGAS APP125.025
ATISATIS132.4
CLDCLNC DEL118
DEPLAS VEGAS DEP125.02
GNDGround121.1
TWRTower119.9
UNICUNICOM122.95
Live ATC
METAR KLAS 241956Z 13004KT 10SM FEW130 32/M03 A3011 RMK AO2 SLP169 T03221028 $
TAF KLAS 241720Z 2418/2524 06006KT P6SM FEW100 FM250300 22007KT P6SM SKC FM251700 04008KT P6SM FEW250
Weather As Of 24 Sep 2022 13:21
Description Few clouds
Wind 9 km/h from North-East (40°)
Cloud Cover 20%
Precipitation Rain: none, Snow: none
Sunrise 06:30
Sunset 18:35
Lounges The Club at LAS , Terminal 3
Rotations During the last 90 days there were
88 flights from LHR
1 flights from PHX
87 flights to LHR


© 2017-2022 Speedbird Online